Auburn, New York
Current Conditions -  °F | °C
As of 2:54 PM on Monday 24 Nov 2014 (Local Time) from KSYR Reporting Station
Broken Clouds Broken Clouds  
Wind Chill: 21°   Ceiling: 11000
Heat Index: 21°   Visibility: 10mi
Dew Point:   Wind: 21mph
Humidity: 47%   Direction: 170°S
Pressure: 29.33"   Gusts: 33mph
Location:  42.93°N, 76.56°W
Report Text: KSYR 241954Z 17018G29KT 10SM FEW075 SCT090 BKN110 21/09 A2933 RMK AO2 PK WND 18031/1859 SLP926 T02110094
Loading
Personal Weather Stations






























Interactive Weather Map New forecast layout! Learn more

10-Day Weather Forecast

Advertisements
Track Severe Weather on mobile